sensor_id;sensor_type;location;lat;lon;timestamp;temperature;humidity
25438;DHT22;13364;49.084;9.978;2022-09-13T00:00:58;14.50;99.90
25438;DHT22;13364;49.084;9.978;2022-09-13T00:03:26;14.50;99.90
25438;DHT22;13364;49.084;9.978;2022-09-13T00:05:53;14.60;99.90
25438;DHT22;13364;49.084;9.978;2022-09-13T00:08:20;14.60;99.90
25438;DHT22;13364;49.084;9.978;2022-09-13T00:10:48;14.60;99.90
25438;DHT22;13364;49.084;9.978;2022-09-13T00:13:15;14.70;99.90
25438;DHT22;13364;49.084;9.978;2022-09-13T00:15:47;14.60;99.90
25438;DHT22;13364;49.084;9.978;2022-09-13T00:18:16;14.60;99.90
25438;DHT22;13364;49.084;9.978;2022-09-13T00:20:44;14.60;99.90
25438;DHT22;13364;49.084;9.978;2022-09-13T00:23:11;14.60;99.90
25438;DHT22;13364;49.084;9.978;2022-09-13T00:25:39;14.60;99.90
25438;DHT22;13364;49.084;9.978;2022-09-13T00:28:06;14.60;99.90
25438;DHT22;13364;49.084;9.978;2022-09-13T00:30:34;14.60;99.90
25438;DHT22;13364;49.084;9.978;2022-09-13T00:33:01;14.70;99.90
25438;DHT22;13364;49.084;9.978;2022-09-13T00:35:31;14.70;99.90
25438;DHT22;13364;49.084;9.978;2022-09-13T00:37:59;14.70;99.90
25438;DHT22;13364;49.084;9.978;2022-09-13T00:40:27;14.70;99.90
25438;DHT22;13364;49.084;9.978;2022-09-13T00:42:56;14.70;99.90
25438;DHT22;13364;49.084;9.978;2022-09-13T00:45:23;14.70;99.90
25438;DHT22;13364;49.084;9.978;2022-09-13T00:48:04;14.70;99.90
25438;DHT22;13364;49.084;9.978;2022-09-13T00:50:39;14.70;99.90
25438;DHT22;13364;49.084;9.978;2022-09-13T00:53:30;14.70;99.90
25438;DHT22;13364;49.084;9.978;2022-09-13T00:56:02;14.70;99.90
25438;DHT22;13364;49.084;9.978;2022-09-13T01:01:01;14.70;99.90
25438;DHT22;13364;49.084;9.978;2022-09-13T01:03:31;14.70;99.90
25438;DHT22;13364;49.084;9.978;2022-09-13T01:06:09;14.60;99.90
25438;DHT22;13364;49.084;9.978;2022-09-13T01:08:38;14.60;99.90
25438;DHT22;13364;49.084;9.978;2022-09-13T01:11:10;14.60;99.90
25438;DHT22;13364;49.084;9.978;2022-09-13T01:13:39;14.50;99.90
25438;DHT22;13364;49.084;9.978;2022-09-13T01:16:07;14.50;99.90
25438;DHT22;13364;49.084;9.978;2022-09-13T01:18:34;14.50;99.90
25438;DHT22;13364;49.084;9.978;2022-09-13T01:23:54;14.40;99.90
25438;DHT22;13364;49.084;9.978;2022-09-13T01:29:38;14.30;99.90
25438;DHT22;13364;49.084;9.978;2022-09-13T01:38:53;14.20;99.90
25438;DHT22;13364;49.084;9.978;2022-09-13T01:52:59;14.00;99.90
25438;DHT22;13364;49.084;9.978;2022-09-13T01:55:36;14.00;99.90
25438;DHT22;13364;49.084;9.978;2022-09-13T01:58:25;13.90;99.90
25438;DHT22;13364;49.084;9.978;2022-09-13T02:04:17;13.80;99.90
25438;DHT22;13364;49.084;9.978;2022-09-13T02:07:06;13.80;99.90
25438;DHT22;13364;49.084;9.978;2022-09-13T02:09:39;13.70;99.90
25438;DHT22;13364;49.084;9.978;2022-09-13T02:12:21;13.70;99.90
25438;DHT22;13364;49.084;9.978;2022-09-13T02:17:37;13.60;99.90
25438;DHT22;13364;49.084;9.978;2022-09-13T02:20:09;13.60;99.90
25438;DHT22;13364;49.084;9.978;2022-09-13T02:22:41;13.60;99.90
25438;DHT22;13364;49.084;9.978;2022-09-13T02:25:14;13.50;99.90
25438;DHT22;13364;49.084;9.978;2022-09-13T02:27:45;13.50;99.90
25438;DHT22;13364;49.084;9.978;2022-09-13T02:30:13;13.50;99.90
25438;DHT22;13364;49.084;9.978;2022-09-13T02:32:57;13.40;99.90
25438;DHT22;13364;49.084;9.978;2022-09-13T02:35:35;13.40;99.90
25438;DHT22;13364;49.084;9.978;2022-09-13T02:38:25;13.40;99.90
25438;DHT22;13364;49.084;9.978;2022-09-13T02:40:57;13.30;99.90
25438;DHT22;13364;49.084;9.978;2022-09-13T02:43:48;13.30;99.90
25438;DHT22;13364;49.084;9.978;2022-09-13T02:54:39;13.20;99.90
25438;DHT22;13364;49.084;9.978;2022-09-13T02:57:49;13.10;99.90
25438;DHT22;13364;49.084;9.978;2022-09-13T03:00:06;13.10;99.90
25438;DHT22;13364;49.084;9.978;2022-09-13T03:02:35;13.00;99.90
25438;DHT22;13364;49.084;9.978;2022-09-13T03:05:03;13.00;99.90
25438;DHT22;13364;49.084;9.978;2022-09-13T03:14:19;12.90;99.90
25438;DHT22;13364;49.084;9.978;2022-09-13T03:17:02;12.90;99.90
25438;DHT22;13364;49.084;9.978;2022-09-13T03:20:02;12.80;99.90
25438;DHT22;13364;49.084;9.978;2022-09-13T03:31:28;12.70;99.90
25438;DHT22;13364;49.084;9.978;2022-09-13T03:39:19;12.70;99.90
25438;DHT22;13364;49.084;9.978;2022-09-13T03:41:52;12.70;99.90
25438;DHT22;13364;49.084;9.978;2022-09-13T03:44:23;12.70;99.90
25438;DHT22;13364;49.084;9.978;2022-09-13T03:46:56;12.60;99.90
25438;DHT22;13364;49.084;9.978;2022-09-13T03:49:25;12.60;99.90
25438;DHT22;13364;49.084;9.978;2022-09-13T03:51:53;12.60;99.90
25438;DHT22;13364;49.084;9.978;2022-09-13T03:54:27;12.50;99.90
25438;DHT22;13364;49.084;9.978;2022-09-13T03:57:16;12.50;99.90
25438;DHT22;13364;49.084;9.978;2022-09-13T03:59:53;12.50;99.90
25438;DHT22;13364;49.084;9.978;2022-09-13T04:02:23;12.40;99.90
25438;DHT22;13364;49.084;9.978;2022-09-13T04:04:50;12.30;99.90
25438;DHT22;13364;49.084;9.978;2022-09-13T04:07:20;12.40;99.90
25438;DHT22;13364;49.084;9.978;2022-09-13T04:09:48;12.30;99.90
25438;DHT22;13364;49.084;9.978;2022-09-13T04:12:16;12.30;99.90
25438;DHT22;13364;49.084;9.978;2022-09-13T04:14:43;12.20;99.90
25438;DHT22;13364;49.084;9.978;2022-09-13T04:17:11;12.20;99.90
25438;DHT22;13364;49.084;9.978;2022-09-13T04:19:39;12.20;99.90
25438;DHT22;13364;49.084;9.978;2022-09-13T04:22:06;12.10;99.90
25438;DHT22;13364;49.084;9.978;2022-09-13T04:24:33;12.20;99.90
25438;DHT22;13364;49.084;9.978;2022-09-13T04:27:00;12.20;99.90
25438;DHT22;13364;49.084;9.978;2022-09-13T04:29:27;12.10;99.90
25438;DHT22;13364;49.084;9.978;2022-09-13T04:31:54;12.10;99.90
25438;DHT22;13364;49.084;9.978;2022-09-13T04:34:22;12.10;99.90
25438;DHT22;13364;49.084;9.978;2022-09-13T04:36:50;12.10;99.90
25438;DHT22;13364;49.084;9.978;2022-09-13T04:39:21;12.10;99.90
25438;DHT22;13364;49.084;9.978;2022-09-13T04:41:51;12.10;99.90
25438;DHT22;13364;49.084;9.978;2022-09-13T04:44:20;12.00;99.90
25438;DHT22;13364;49.084;9.978;2022-09-13T04:46:48;12.00;99.90
25438;DHT22;13364;49.084;9.978;2022-09-13T04:49:16;12.00;99.90
25438;DHT22;13364;49.084;9.978;2022-09-13T04:51:43;12.00;99.90
25438;DHT22;13364;49.084;9.978;2022-09-13T04:54:11;12.00;99.90
25438;DHT22;13364;49.084;9.978;2022-09-13T04:56:42;12.00;99.90
25438;DHT22;13364;49.084;9.978;2022-09-13T04:59:10;12.00;99.90
25438;DHT22;13364;49.084;9.978;2022-09-13T05:01:43;12.00;99.90
25438;DHT22;13364;49.084;9.978;2022-09-13T05:04:10;12.10;99.90
25438;DHT22;13364;49.084;9.978;2022-09-13T05:06:37;12.10;99.90
25438;DHT22;13364;49.084;9.978;2022-09-13T05:09:05;12.10;99.90
25438;DHT22;13364;49.084;9.978;2022-09-13T05:11:32;12.10;99.90
25438;DHT22;13364;49.084;9.978;2022-09-13T05:14:01;12.10;99.90
25438;DHT22;13364;49.084;9.978;2022-09-13T05:16:31;12.20;99.90
25438;DHT22;13364;49.084;9.978;2022-09-13T05:18:59;12.20;99.90
25438;DHT22;13364;49.084;9.978;2022-09-13T05:21:26;12.20;99.90
25438;DHT22;13364;49.084;9.978;2022-09-13T05:23:54;12.30;99.90
25438;DHT22;13364;49.084;9.978;2022-09-13T05:26:23;12.30;99.90
25438;DHT22;13364;49.084;9.978;2022-09-13T05:28:50;12.40;99.90
25438;DHT22;13364;49.084;9.978;2022-09-13T05:31:23;12.50;99.90
25438;DHT22;13364;49.084;9.978;2022-09-13T05:34:03;12.60;99.90
25438;DHT22;13364;49.084;9.978;2022-09-13T05:36:31;12.80;99.90
25438;DHT22;13364;49.084;9.978;2022-09-13T05:38:58;12.90;99.90
25438;DHT22;13364;49.084;9.978;2022-09-13T05:41:46;13.10;99.90
25438;DHT22;13364;49.084;9.978;2022-09-13T05:44:13;13.20;99.90
25438;DHT22;13364;49.084;9.978;2022-09-13T05:46:41;13.30;99.90
25438;DHT22;13364;49.084;9.978;2022-09-13T05:49:10;13.40;99.90
25438;DHT22;13364;49.084;9.978;2022-09-13T05:51:38;13.60;99.90
25438;DHT22;13364;49.084;9.978;2022-09-13T05:54:05;13.70;99.90
25438;DHT22;13364;49.084;9.978;2022-09-13T05:56:32;13.80;99.90
25438;DHT22;13364;49.084;9.978;2022-09-13T05:58:59;14.00;99.90
25438;DHT22;13364;49.084;9.978;2022-09-13T06:01:27;14.10;99.90
25438;DHT22;13364;49.084;9.978;2022-09-13T06:03:56;14.30;99.90
25438;DHT22;13364;49.084;9.978;2022-09-13T06:06:24;14.40;99.90
25438;DHT22;13364;49.084;9.978;2022-09-13T06:08:52;14.40;99.90
25438;DHT22;13364;49.084;9.978;2022-09-13T06:11:19;14.50;99.90
25438;DHT22;13364;49.084;9.978;2022-09-13T06:13:47;14.70;99.90
25438;DHT22;13364;49.084;9.978;2022-09-13T06:16:15;14.80;99.90
25438;DHT22;13364;49.084;9.978;2022-09-13T06:18:43;14.80;99.90
25438;DHT22;13364;49.084;9.978;2022-09-13T06:21:13;14.90;99.90
25438;DHT22;13364;49.084;9.978;2022-09-13T06:23:45;15.00;99.90
25438;DHT22;13364;49.084;9.978;2022-09-13T06:26:14;15.10;99.90
25438;DHT22;13364;49.084;9.978;2022-09-13T06:28:42;15.20;99.90
25438;DHT22;13364;49.084;9.978;2022-09-13T06:31:13;15.30;99.90
25438;DHT22;13364;49.084;9.978;2022-09-13T06:33:42;15.30;99.90
25438;DHT22;13364;49.084;9.978;2022-09-13T06:36:17;15.40;99.90
25438;DHT22;13364;49.084;9.978;2022-09-13T06:38:46;15.50;99.90
25438;DHT22;13364;49.084;9.978;2022-09-13T06:41:15;15.60;99.90
25438;DHT22;13364;49.084;9.978;2022-09-13T06:43:45;15.60;99.90
25438;DHT22;13364;49.084;9.978;2022-09-13T06:46:15;15.70;99.90
25438;DHT22;13364;49.084;9.978;2022-09-13T06:48:49;15.80;99.90
25438;DHT22;13364;49.084;9.978;2022-09-13T06:51:19;15.80;99.90
25438;DHT22;13364;49.084;9.978;2022-09-13T06:53:47;15.90;99.90
25438;DHT22;13364;49.084;9.978;2022-09-13T06:56:19;16.00;99.90
25438;DHT22;13364;49.084;9.978;2022-09-13T06:58:47;16.10;99.90
25438;DHT22;13364;49.084;9.978;2022-09-13T07:01:22;16.10;99.90
25438;DHT22;13364;49.084;9.978;2022-09-13T07:03:58;16.20;99.90
25438;DHT22;13364;49.084;9.978;2022-09-13T07:06:27;16.30;99.90
25438;DHT22;13364;49.084;9.978;2022-09-13T07:08:56;16.30;99.90
25438;DHT22;13364;49.084;9.978;2022-09-13T07:11:25;16.40;99.90
25438;DHT22;13364;49.084;9.978;2022-09-13T07:13:55;16.50;99.90
25438;DHT22;13364;49.084;9.978;2022-09-13T07:16:24;16.50;99.90
25438;DHT22;13364;49.084;9.978;2022-09-13T07:19:01;16.60;99.90
25438;DHT22;13364;49.084;9.978;2022-09-13T07:21:28;16.70;99.90
25438;DHT22;13364;49.084;9.978;2022-09-13T07:23:56;16.80;99.90
25438;DHT22;13364;49.084;9.978;2022-09-13T07:26:24;16.90;99.90
25438;DHT22;13364;49.084;9.978;2022-09-13T07:28:54;17.10;99.90
25438;DHT22;13364;49.084;9.978;2022-09-13T07:31:26;17.20;99.90
25438;DHT22;13364;49.084;9.978;2022-09-13T07:34:01;17.30;99.90
25438;DHT22;13364;49.084;9.978;2022-09-13T07:36:30;17.40;99.90
25438;DHT22;13364;49.084;9.978;2022-09-13T07:38:58;17.50;99.90
25438;DHT22;13364;49.084;9.978;2022-09-13T07:41:26;17.60;99.90
25438;DHT22;13364;49.084;9.978;2022-09-13T07:43:54;17.80;99.90
25438;DHT22;13364;49.084;9.978;2022-09-13T07:46:24;17.90;99.90
25438;DHT22;13364;49.084;9.978;2022-09-13T07:48:53;18.10;99.90
25438;DHT22;13364;49.084;9.978;2022-09-13T07:51:29;18.20;99.90
25438;DHT22;13364;49.084;9.978;2022-09-13T07:54:02;18.40;99.90
25438;DHT22;13364;49.084;9.978;2022-09-13T07:56:32;18.60;99.90
25438;DHT22;13364;49.084;9.978;2022-09-13T07:59:01;18.80;99.90
25438;DHT22;13364;49.084;9.978;2022-09-13T08:01:33;19.00;99.90
25438;DHT22;13364;49.084;9.978;2022-09-13T08:04:03;19.10;99.90
25438;DHT22;13364;49.084;9.978;2022-09-13T08:06:32;19.30;99.90
25438;DHT22;13364;49.084;9.978;2022-09-13T08:08:59;19.40;99.90
25438;DHT22;13364;49.084;9.978;2022-09-13T08:11:29;19.50;99.90
25438;DHT22;13364;49.084;9.978;2022-09-13T08:13:57;19.60;99.90
25438;DHT22;13364;49.084;9.978;2022-09-13T08:16:26;19.80;99.90
25438;DHT22;13364;49.084;9.978;2022-09-13T08:18:55;19.90;99.90
25438;DHT22;13364;49.084;9.978;2022-09-13T08:21:23;20.00;99.90
25438;DHT22;13364;49.084;9.978;2022-09-13T08:23:57;20.20;99.90
25438;DHT22;13364;49.084;9.978;2022-09-13T08:26:30;20.40;99.90
25438;DHT22;13364;49.084;9.978;2022-09-13T08:28:59;20.50;99.90
25438;DHT22;13364;49.084;9.978;2022-09-13T08:31:27;20.70;99.90
25438;DHT22;13364;49.084;9.978;2022-09-13T08:33:55;20.90;99.90
25438;DHT22;13364;49.084;9.978;2022-09-13T08:36:23;21.00;99.90
25438;DHT22;13364;49.084;9.978;2022-09-13T08:38:52;21.20;99.90
25438;DHT22;13364;49.084;9.978;2022-09-13T08:44:16;21.50;99.90
25438;DHT22;13364;49.084;9.978;2022-09-13T08:46:45;21.60;99.90
25438;DHT22;13364;49.084;9.978;2022-09-13T08:49:20;21.60;99.90
25438;DHT22;13364;49.084;9.978;2022-09-13T08:51:58;21.70;99.90
25438;DHT22;13364;49.084;9.978;2022-09-13T08:54:26;21.70;99.90
25438;DHT22;13364;49.084;9.978;2022-09-13T08:57:08;21.70;99.90
25438;DHT22;13364;49.084;9.978;2022-09-13T08:59:52;21.80;99.90
25438;DHT22;13364;49.084;9.978;2022-09-13T09:05:05;22.00;99.90
25438;DHT22;13364;49.084;9.978;2022-09-13T09:07:51;22.10;99.90
25438;DHT22;13364;49.084;9.978;2022-09-13T09:10:31;22.10;99.90
25438;DHT22;13364;49.084;9.978;2022-09-13T09:13:05;22.10;99.90
25438;DHT22;13364;49.084;9.978;2022-09-13T09:15:46;22.10;99.90
25438;DHT22;13364;49.084;9.978;2022-09-13T09:18:24;22.20;99.90
25438;DHT22;13364;49.084;9.978;2022-09-13T09:20:58;22.30;99.90
25438;DHT22;13364;49.084;9.978;2022-09-13T09:28:50;22.70;99.90
25438;DHT22;13364;49.084;9.978;2022-09-13T09:32:03;22.80;99.90
25438;DHT22;13364;49.084;9.978;2022-09-13T09:37:22;22.90;99.90
25438;DHT22;13364;49.084;9.978;2022-09-13T09:39:52;22.90;99.90
25438;DHT22;13364;49.084;9.978;2022-09-13T09:42:24;23.00;99.90
25438;DHT22;13364;49.084;9.978;2022-09-13T09:45:16;23.10;99.90
25438;DHT22;13364;49.084;9.978;2022-09-13T09:47:45;23.20;99.90
25438;DHT22;13364;49.084;9.978;2022-09-13T09:50:19;23.30;99.90
25438;DHT22;13364;49.084;9.978;2022-09-13T09:56:03;23.40;99.90
25438;DHT22;13364;49.084;9.978;2022-09-13T09:58:39;23.30;99.90
25438;DHT22;13364;49.084;9.978;2022-09-13T10:01:36;23.20;99.90
25438;DHT22;13364;49.084;9.978;2022-09-13T10:06:37;23.10;99.90
25438;DHT22;13364;49.084;9.978;2022-09-13T10:11:45;23.10;99.90
25438;DHT22;13364;49.084;9.978;2022-09-13T10:14:46;23.00;99.90
25438;DHT22;13364;49.084;9.978;2022-09-13T10:17:25;23.10;99.90
25438;DHT22;13364;49.084;9.978;2022-09-13T10:19:58;23.20;99.90
25438;DHT22;13364;49.084;9.978;2022-09-13T10:22:29;23.30;99.90
25438;DHT22;13364;49.084;9.978;2022-09-13T10:27:41;23.50;99.90
25438;DHT22;13364;49.084;9.978;2022-09-13T10:33:25;23.80;99.90
25438;DHT22;13364;49.084;9.978;2022-09-13T10:35:55;24.00;99.90
25438;DHT22;13364;49.084;9.978;2022-09-13T10:38:29;24.20;99.90
25438;DHT22;13364;49.084;9.978;2022-09-13T10:40:58;24.40;99.90
25438;DHT22;13364;49.084;9.978;2022-09-13T10:43:28;24.50;99.90
25438;DHT22;13364;49.084;9.978;2022-09-13T10:45:57;24.60;99.90
25438;DHT22;13364;49.084;9.978;2022-09-13T10:48:24;24.70;99.90
25438;DHT22;13364;49.084;9.978;2022-09-13T10:51:01;24.70;99.90
25438;DHT22;13364;49.084;9.978;2022-09-13T10:53:34;24.80;99.90
25438;DHT22;13364;49.084;9.978;2022-09-13T10:56:01;24.80;99.90
25438;DHT22;13364;49.084;9.978;2022-09-13T10:58:28;24.90;99.90
25438;DHT22;13364;49.084;9.978;2022-09-13T11:01:15;24.90;99.90
25438;DHT22;13364;49.084;9.978;2022-09-13T11:13:25;25.40;99.90
25438;DHT22;13364;49.084;9.978;2022-09-13T11:21:38;25.70;99.90
25438;DHT22;13364;49.084;9.978;2022-09-13T11:30:07;25.80;97.10
25438;DHT22;13364;49.084;9.978;2022-09-13T11:43:59;25.90;96.30
25438;DHT22;13364;49.084;9.978;2022-09-13T11:46:58;25.90;92.90
25438;DHT22;13364;49.084;9.978;2022-09-13T11:55:20;25.90;87.10
25438;DHT22;13364;49.084;9.978;2022-09-13T11:58:00;26.00;86.10
25438;DHT22;13364;49.084;9.978;2022-09-13T12:00:38;26.00;84.60
25438;DHT22;13364;49.084;9.978;2022-09-13T12:05:49;26.20;87.60
25438;DHT22;13364;49.084;9.978;2022-09-13T12:08:32;26.30;89.80
25438;DHT22;13364;49.084;9.978;2022-09-13T12:11:22;26.40;88.20
25438;DHT22;13364;49.084;9.978;2022-09-13T12:13:53;26.40;90.60
25438;DHT22;13364;49.084;9.978;2022-09-13T12:16:25;26.50;89.40
25438;DHT22;13364;49.084;9.978;2022-09-13T12:19:26;26.60;88.50
25438;DHT22;13364;49.084;9.978;2022-09-13T12:21:57;26.70;91.70
25438;DHT22;13364;49.084;9.978;2022-09-13T12:27:04;27.10;90.80
25438;DHT22;13364;49.084;9.978;2022-09-13T12:29:55;27.10;90.70
25438;DHT22;13364;49.084;9.978;2022-09-13T12:32:23;27.10;90.90
25438;DHT22;13364;49.084;9.978;2022-09-13T12:35:38;27.10;90.50
25438;DHT22;13364;49.084;9.978;2022-09-13T12:38:05;27.10;89.80
25438;DHT22;13364;49.084;9.978;2022-09-13T12:40:56;27.10;89.40
25438;DHT22;13364;49.084;9.978;2022-09-13T12:44:02;27.20;89.00
25438;DHT22;13364;49.084;9.978;2022-09-13T12:52:29;27.20;90.00
25438;DHT22;13364;49.084;9.978;2022-09-13T13:01:52;26.90;90.20
25438;DHT22;13364;49.084;9.978;2022-09-13T13:04:31;26.70;90.30
25438;DHT22;13364;49.084;9.978;2022-09-13T13:07:02;26.50;94.10
25438;DHT22;13364;49.084;9.978;2022-09-13T13:09:44;26.40;98.50
25438;DHT22;13364;49.084;9.978;2022-09-13T13:12:36;26.30;99.90
25438;DHT22;13364;49.084;9.978;2022-09-13T13:21:05;25.80;99.90
25438;DHT22;13364;49.084;9.978;2022-09-13T13:23:37;25.70;99.90
25438;DHT22;13364;49.084;9.978;2022-09-13T13:28:50;25.40;99.90
25438;DHT22;13364;49.084;9.978;2022-09-13T13:41:59;25.60;98.50
25438;DHT22;13364;49.084;9.978;2022-09-13T13:57:37;26.00;94.20
25438;DHT22;13364;49.084;9.978;2022-09-13T14:00:24;26.00;95.50
25438;DHT22;13364;49.084;9.978;2022-09-13T14:14:14;25.90;95.30
25438;DHT22;13364;49.084;9.978;2022-09-13T14:16:56;25.90;93.90
25438;DHT22;13364;49.084;9.978;2022-09-13T14:19:26;25.90;91.40
25438;DHT22;13364;49.084;9.978;2022-09-13T14:24:38;25.80;94.20
25438;DHT22;13364;49.084;9.978;2022-09-13T14:27:18;25.80;98.30
25438;DHT22;13364;49.084;9.978;2022-09-13T14:29:48;25.80;99.30
25438;DHT22;13364;49.084;9.978;2022-09-13T14:32:19;25.80;98.50
25438;DHT22;13364;49.084;9.978;2022-09-13T14:35:00;25.80;99.90
25438;DHT22;13364;49.084;9.978;2022-09-13T14:37:36;25.80;99.90
25438;DHT22;13364;49.084;9.978;2022-09-13T14:40:19;25.70;98.30
25438;DHT22;13364;49.084;9.978;2022-09-13T14:42:49;25.60;96.30
25438;DHT22;13364;49.084;9.978;2022-09-13T14:45:27;25.60;98.80
25438;DHT22;13364;49.084;9.978;2022-09-13T14:48:15;25.60;98.20
25438;DHT22;13364;49.084;9.978;2022-09-13T14:53:28;25.70;99.80
25438;DHT22;13364;49.084;9.978;2022-09-13T14:56:02;25.80;97.60
25438;DHT22;13364;49.084;9.978;2022-09-13T14:58:44;25.90;94.50
25438;DHT22;13364;49.084;9.978;2022-09-13T15:01:15;25.90;96.30
25438;DHT22;13364;49.084;9.978;2022-09-13T15:03:45;26.00;95.40
25438;DHT22;13364;49.084;9.978;2022-09-13T15:06:25;26.00;92.60
25438;DHT22;13364;49.084;9.978;2022-09-13T15:09:25;26.00;92.70
25438;DHT22;13364;49.084;9.978;2022-09-13T15:14:24;26.20;92.10
25438;DHT22;13364;49.084;9.978;2022-09-13T15:16:53;26.30;91.80
25438;DHT22;13364;49.084;9.978;2022-09-13T15:21:50;26.50;91.80
25438;DHT22;13364;49.084;9.978;2022-09-13T15:24:21;26.50;89.90
25438;DHT22;13364;49.084;9.978;2022-09-13T15:27:13;26.50;90.30
25438;DHT22;13364;49.084;9.978;2022-09-13T15:29:49;26.40;92.10
25438;DHT22;13364;49.084;9.978;2022-09-13T15:32:22;26.40;90.80
25438;DHT22;13364;49.084;9.978;2022-09-13T15:34:50;26.30;91.10
25438;DHT22;13364;49.084;9.978;2022-09-13T15:37:17;26.20;91.10
25438;DHT22;13364;49.084;9.978;2022-09-13T15:40:17;26.10;92.60
25438;DHT22;13364;49.084;9.978;2022-09-13T15:42:49;26.10;92.70
25438;DHT22;13364;49.084;9.978;2022-09-13T15:45:18;26.00;94.10
25438;DHT22;13364;49.084;9.978;2022-09-13T15:47:47;26.00;95.50
25438;DHT22;13364;49.084;9.978;2022-09-13T15:50:22;26.00;92.30
25438;DHT22;13364;49.084;9.978;2022-09-13T15:52:50;25.90;96.50
25438;DHT22;13364;49.084;9.978;2022-09-13T15:55:17;25.80;97.80
25438;DHT22;13364;49.084;9.978;2022-09-13T15:57:45;25.80;98.10
25438;DHT22;13364;49.084;9.978;2022-09-13T16:00:24;25.70;99.40
25438;DHT22;13364;49.084;9.978;2022-09-13T16:02:52;25.60;98.90
25438;DHT22;13364;49.084;9.978;2022-09-13T16:05:19;25.50;98.40
25438;DHT22;13364;49.084;9.978;2022-09-13T16:07:46;25.40;99.60
25438;DHT22;13364;49.084;9.978;2022-09-13T16:10:19;25.30;99.90
25438;DHT22;13364;49.084;9.978;2022-09-13T16:12:46;25.20;99.90
25438;DHT22;13364;49.084;9.978;2022-09-13T16:15:14;25.00;99.90
25438;DHT22;13364;49.084;9.978;2022-09-13T16:17:41;25.00;99.90
25438;DHT22;13364;49.084;9.978;2022-09-13T16:20:11;24.90;99.90
25438;DHT22;13364;49.084;9.978;2022-09-13T16:22:39;24.80;99.90
25438;DHT22;13364;49.084;9.978;2022-09-13T16:25:06;24.70;99.90
25438;DHT22;13364;49.084;9.978;2022-09-13T16:27:33;24.50;99.90
25438;DHT22;13364;49.084;9.978;2022-09-13T16:30:00;24.40;99.90
25438;DHT22;13364;49.084;9.978;2022-09-13T16:32:27;24.20;99.90
25438;DHT22;13364;49.084;9.978;2022-09-13T16:34:54;24.10;99.90
25438;DHT22;13364;49.084;9.978;2022-09-13T16:37:21;24.00;99.90
25438;DHT22;13364;49.084;9.978;2022-09-13T16:39:49;23.90;99.90
25438;DHT22;13364;49.084;9.978;2022-09-13T16:42:16;23.70;99.90
25438;DHT22;13364;49.084;9.978;2022-09-13T16:44:43;23.60;99.90
25438;DHT22;13364;49.084;9.978;2022-09-13T16:47:10;23.50;99.90
25438;DHT22;13364;49.084;9.978;2022-09-13T16:49:37;23.50;99.90
25438;DHT22;13364;49.084;9.978;2022-09-13T16:52:05;23.40;99.90
25438;DHT22;13364;49.084;9.978;2022-09-13T16:54:32;23.30;99.90
25438;DHT22;13364;49.084;9.978;2022-09-13T16:57:01;23.30;99.90
25438;DHT22;13364;49.084;9.978;2022-09-13T16:59:30;23.20;99.90
25438;DHT22;13364;49.084;9.978;2022-09-13T17:01:58;23.20;99.90
25438;DHT22;13364;49.084;9.978;2022-09-13T17:04:25;23.10;99.90
25438;DHT22;13364;49.084;9.978;2022-09-13T17:06:52;23.00;99.90
25438;DHT22;13364;49.084;9.978;2022-09-13T17:09:19;22.90;99.90
25438;DHT22;13364;49.084;9.978;2022-09-13T17:11:48;22.90;99.90
25438;DHT22;13364;49.084;9.978;2022-09-13T17:14:15;22.80;99.90
25438;DHT22;13364;49.084;9.978;2022-09-13T17:16:46;22.70;99.90
25438;DHT22;13364;49.084;9.978;2022-09-13T17:19:16;22.60;99.90
25438;DHT22;13364;49.084;9.978;2022-09-13T17:21:45;22.50;99.90
25438;DHT22;13364;49.084;9.978;2022-09-13T17:24:12;22.40;99.90
25438;DHT22;13364;49.084;9.978;2022-09-13T17:26:41;22.30;99.90
25438;DHT22;13364;49.084;9.978;2022-09-13T17:29:10;22.20;99.90
25438;DHT22;13364;49.084;9.978;2022-09-13T17:31:37;22.10;99.90
25438;DHT22;13364;49.084;9.978;2022-09-13T17:34:04;22.10;99.90
25438;DHT22;13364;49.084;9.978;2022-09-13T17:36:31;22.00;99.90
25438;DHT22;13364;49.084;9.978;2022-09-13T17:38:58;22.00;99.90
25438;DHT22;13364;49.084;9.978;2022-09-13T17:41:25;21.90;99.90
25438;DHT22;13364;49.084;9.978;2022-09-13T17:43:53;21.80;99.90
25438;DHT22;13364;49.084;9.978;2022-09-13T17:46:22;21.70;99.90
25438;DHT22;13364;49.084;9.978;2022-09-13T17:48:51;21.60;99.90
25438;DHT22;13364;49.084;9.978;2022-09-13T17:51:20;21.60;99.90
25438;DHT22;13364;49.084;9.978;2022-09-13T17:53:48;21.50;99.90
25438;DHT22;13364;49.084;9.978;2022-09-13T17:56:18;21.50;99.90
25438;DHT22;13364;49.084;9.978;2022-09-13T17:58:45;21.40;99.90
25438;DHT22;13364;49.084;9.978;2022-09-13T18:01:13;21.20;99.90
25438;DHT22;13364;49.084;9.978;2022-09-13T18:04:10;21.10;99.90
25438;DHT22;13364;49.084;9.978;2022-09-13T18:06:37;20.90;99.90
25438;DHT22;13364;49.084;9.978;2022-09-13T18:09:09;20.90;99.90
25438;DHT22;13364;49.084;9.978;2022-09-13T18:11:37;20.80;99.90
25438;DHT22;13364;49.084;9.978;2022-09-13T18:14:05;20.80;99.90
25438;DHT22;13364;49.084;9.978;2022-09-13T18:16:32;20.70;99.90
25438;DHT22;13364;49.084;9.978;2022-09-13T18:19:00;20.70;99.90
25438;DHT22;13364;49.084;9.978;2022-09-13T18:21:27;20.60;99.90
25438;DHT22;13364;49.084;9.978;2022-09-13T18:23:56;20.60;99.90
25438;DHT22;13364;49.084;9.978;2022-09-13T18:26:25;20.60;99.90
25438;DHT22;13364;49.084;9.978;2022-09-13T18:29:03;20.60;99.90
25438;DHT22;13364;49.084;9.978;2022-09-13T18:31:32;20.60;99.90
25438;DHT22;13364;49.084;9.978;2022-09-13T18:34:02;20.60;99.90
25438;DHT22;13364;49.084;9.978;2022-09-13T18:36:30;20.60;99.90
25438;DHT22;13364;49.084;9.978;2022-09-13T18:38:59;20.50;99.90
25438;DHT22;13364;49.084;9.978;2022-09-13T18:41:38;20.50;99.90
25438;DHT22;13364;49.084;9.978;2022-09-13T18:44:08;20.40;99.90
25438;DHT22;13364;49.084;9.978;2022-09-13T18:46:36;20.40;99.90
25438;DHT22;13364;49.084;9.978;2022-09-13T18:49:04;20.40;99.90
25438;DHT22;13364;49.084;9.978;2022-09-13T18:51:39;20.40;99.90
25438;DHT22;13364;49.084;9.978;2022-09-13T18:54:09;20.40;99.90
25438;DHT22;13364;49.084;9.978;2022-09-13T18:56:37;20.40;99.90
25438;DHT22;13364;49.084;9.978;2022-09-13T18:59:05;20.40;99.90
25438;DHT22;13364;49.084;9.978;2022-09-13T19:01:34;20.40;99.90
25438;DHT22;13364;49.084;9.978;2022-09-13T19:06:39;20.30;99.90
25438;DHT22;13364;49.084;9.978;2022-09-13T19:09:08;20.30;99.90
25438;DHT22;13364;49.084;9.978;2022-09-13T19:11:41;20.30;99.90
25438;DHT22;13364;49.084;9.978;2022-09-13T19:14:17;20.30;99.90
25438;DHT22;13364;49.084;9.978;2022-09-13T19:16:48;20.20;99.90
25438;DHT22;13364;49.084;9.978;2022-09-13T19:19:15;20.20;99.90
25438;DHT22;13364;49.084;9.978;2022-09-13T19:21:42;20.20;99.90
25438;DHT22;13364;49.084;9.978;2022-09-13T19:24:10;20.20;99.90